sensor_id;sensor_type;location;lat;lon;timestamp;P1;durP1;ratioP1;P2;durP2;ratioP2
75506;SDS011;64086;43.220;27.878;2023-12-20T00:02:14;37.67;;;23.92;;
75506;SDS011;64086;43.220;27.878;2023-12-20T00:04:40;35.72;;;23.13;;
75506;SDS011;64086;43.220;27.878;2023-12-20T00:07:05;33.90;;;25.02;;
75506;SDS011;64086;43.220;27.878;2023-12-20T00:09:31;40.97;;;27.35;;
75506;SDS011;64086;43.220;27.878;2023-12-20T00:11:56;37.45;;;28.73;;
75506;SDS011;64086;43.220;27.878;2023-12-20T00:14:22;46.50;;;33.28;;
75506;SDS011;64086;43.220;27.878;2023-12-20T00:16:47;54.42;;;39.33;;
75506;SDS011;64086;43.220;27.878;2023-12-20T00:19:13;51.63;;;35.05;;
75506;SDS011;64086;43.220;27.878;2023-12-20T00:21:38;46.65;;;33.85;;
75506;SDS011;64086;43.220;27.878;2023-12-20T00:24:04;45.65;;;32.78;;
75506;SDS011;64086;43.220;27.878;2023-12-20T00:26:30;45.85;;;34.30;;
75506;SDS011;64086;43.220;27.878;2023-12-20T00:28:55;53.03;;;34.83;;
75506;SDS011;64086;43.220;27.878;2023-12-20T00:31:21;62.03;;;39.53;;
75506;SDS011;64086;43.220;27.878;2023-12-20T00:33:46;44.45;;;32.08;;
75506;SDS011;64086;43.220;27.878;2023-12-20T00:36:12;41.40;;;29.70;;
75506;SDS011;64086;43.220;27.878;2023-12-20T00:38:37;42.70;;;29.80;;
75506;SDS011;64086;43.220;27.878;2023-12-20T00:41:03;36.40;;;26.67;;
75506;SDS011;64086;43.220;27.878;2023-12-20T00:43:28;28.52;;;23.65;;
75506;SDS011;64086;43.220;27.878;2023-12-20T00:45:54;30.92;;;20.98;;
75506;SDS011;64086;43.220;27.878;2023-12-20T00:48:20;28.13;;;19.35;;
75506;SDS011;64086;43.220;27.878;2023-12-20T00:50:46;24.67;;;19.30;;
75506;SDS011;64086;43.220;27.878;2023-12-20T00:53:11;22.58;;;18.20;;
75506;SDS011;64086;43.220;27.878;2023-12-20T00:55:37;28.38;;;21.00;;
75506;SDS011;64086;43.220;27.878;2023-12-20T00:58:03;24.48;;;19.17;;
75506;SDS011;64086;43.220;27.878;2023-12-20T01:00:28;27.25;;;19.85;;
75506;SDS011;64086;43.220;27.878;2023-12-20T01:02:54;27.33;;;20.50;;
75506;SDS011;64086;43.220;27.878;2023-12-20T01:05:19;26.60;;;19.42;;
75506;SDS011;64086;43.220;27.878;2023-12-20T01:07:48;30.88;;;21.00;;
75506;SDS011;64086;43.220;27.878;2023-12-20T01:10:13;26.13;;;19.58;;
75506;SDS011;64086;43.220;27.878;2023-12-20T01:12:39;26.25;;;19.00;;
75506;SDS011;64086;43.220;27.878;2023-12-20T01:15:05;27.90;;;19.23;;
75506;SDS011;64086;43.220;27.878;2023-12-20T01:17:30;26.45;;;19.27;;
75506;SDS011;64086;43.220;27.878;2023-12-20T01:19:56;26.02;;;19.92;;
75506;SDS011;64086;43.220;27.878;2023-12-20T01:22:21;29.63;;;21.13;;
75506;SDS011;64086;43.220;27.878;2023-12-20T01:24:47;26.70;;;20.00;;
75506;SDS011;64086;43.220;27.878;2023-12-20T01:27:12;33.47;;;25.30;;
75506;SDS011;64086;43.220;27.878;2023-12-20T01:29:38;29.13;;;20.50;;
75506;SDS011;64086;43.220;27.878;2023-12-20T01:32:04;31.92;;;22.83;;
75506;SDS011;64086;43.220;27.878;2023-12-20T01:34:29;36.33;;;25.73;;
75506;SDS011;64086;43.220;27.878;2023-12-20T01:36:55;33.85;;;25.52;;
75506;SDS011;64086;43.220;27.878;2023-12-20T01:39:20;37.28;;;26.50;;
75506;SDS011;64086;43.220;27.878;2023-12-20T01:41:46;41.13;;;27.60;;
75506;SDS011;64086;43.220;27.878;2023-12-20T01:44:11;41.35;;;28.95;;
75506;SDS011;64086;43.220;27.878;2023-12-20T01:46:37;42.13;;;31.70;;
75506;SDS011;64086;43.220;27.878;2023-12-20T01:49:03;46.47;;;32.78;;
75506;SDS011;64086;43.220;27.878;2023-12-20T01:51:29;45.50;;;33.85;;
75506;SDS011;64086;43.220;27.878;2023-12-20T01:53:55;49.33;;;35.47;;
75506;SDS011;64086;43.220;27.878;2023-12-20T01:56:21;51.70;;;37.83;;
75506;SDS011;64086;43.220;27.878;2023-12-20T01:58:47;40.10;;;28.45;;
75506;SDS011;64086;43.220;27.878;2023-12-20T02:01:13;44.05;;;30.88;;
75506;SDS011;64086;43.220;27.878;2023-12-20T02:03:40;37.15;;;28.35;;
75506;SDS011;64086;43.220;27.878;2023-12-20T02:06:07;41.40;;;29.52;;
75506;SDS011;64086;43.220;27.878;2023-12-20T02:08:33;37.83;;;30.45;;
75506;SDS011;64086;43.220;27.878;2023-12-20T02:10:59;44.47;;;30.98;;
75506;SDS011;64086;43.220;27.878;2023-12-20T02:13:25;40.25;;;30.67;;
75506;SDS011;64086;43.220;27.878;2023-12-20T02:15:51;37.90;;;28.40;;
75506;SDS011;64086;43.220;27.878;2023-12-20T02:18:17;35.03;;;26.50;;
75506;SDS011;64086;43.220;27.878;2023-12-20T02:20:43;32.83;;;23.27;;
75506;SDS011;64086;43.220;27.878;2023-12-20T02:23:08;28.42;;;21.25;;
75506;SDS011;64086;43.220;27.878;2023-12-20T02:25:34;26.20;;;20.67;;
75506;SDS011;64086;43.220;27.878;2023-12-20T02:27:59;23.73;;;19.48;;
75506;SDS011;64086;43.220;27.878;2023-12-20T02:30:25;29.85;;;19.70;;
75506;SDS011;64086;43.220;27.878;2023-12-20T02:32:51;25.23;;;19.90;;
75506;SDS011;64086;43.220;27.878;2023-12-20T02:35:17;29.70;;;20.77;;
75506;SDS011;64086;43.220;27.878;2023-12-20T02:37:43;26.05;;;19.88;;
75506;SDS011;64086;43.220;27.878;2023-12-20T02:40:08;28.40;;;19.08;;
75506;SDS011;64086;43.220;27.878;2023-12-20T02:42:35;28.83;;;20.02;;
75506;SDS011;64086;43.220;27.878;2023-12-20T02:45:01;25.67;;;20.27;;
75506;SDS011;64086;43.220;27.878;2023-12-20T02:47:26;24.67;;;19.42;;
75506;SDS011;64086;43.220;27.878;2023-12-20T02:49:52;25.50;;;19.40;;
75506;SDS011;64086;43.220;27.878;2023-12-20T02:52:18;26.98;;;19.25;;
75506;SDS011;64086;43.220;27.878;2023-12-20T02:54:43;24.05;;;18.42;;
75506;SDS011;64086;43.220;27.878;2023-12-20T02:57:09;27.17;;;19.73;;
75506;SDS011;64086;43.220;27.878;2023-12-20T02:59:35;24.88;;;19.20;;
75506;SDS011;64086;43.220;27.878;2023-12-20T03:02:00;26.35;;;19.42;;
75506;SDS011;64086;43.220;27.878;2023-12-20T03:04:26;26.00;;;19.08;;
75506;SDS011;64086;43.220;27.878;2023-12-20T03:06:51;26.20;;;18.00;;
75506;SDS011;64086;43.220;27.878;2023-12-20T03:09:17;28.25;;;17.83;;
75506;SDS011;64086;43.220;27.878;2023-12-20T03:11:42;22.40;;;16.60;;
75506;SDS011;64086;43.220;27.878;2023-12-20T03:14:08;21.10;;;16.80;;
75506;SDS011;64086;43.220;27.878;2023-12-20T03:16:33;23.52;;;16.38;;
75506;SDS011;64086;43.220;27.878;2023-12-20T03:18:59;23.77;;;17.48;;
75506;SDS011;64086;43.220;27.878;2023-12-20T03:21:24;20.30;;;16.15;;
75506;SDS011;64086;43.220;27.878;2023-12-20T03:23:50;26.33;;;17.17;;
75506;SDS011;64086;43.220;27.878;2023-12-20T03:26:15;23.90;;;17.83;;
75506;SDS011;64086;43.220;27.878;2023-12-20T03:28:41;22.25;;;16.48;;
75506;SDS011;64086;43.220;27.878;2023-12-20T03:31:06;22.17;;;16.25;;
75506;SDS011;64086;43.220;27.878;2023-12-20T03:33:32;23.00;;;16.52;;
75506;SDS011;64086;43.220;27.878;2023-12-20T03:35:57;24.05;;;17.15;;
75506;SDS011;64086;43.220;27.878;2023-12-20T03:38:23;26.23;;;18.42;;
75506;SDS011;64086;43.220;27.878;2023-12-20T03:40:49;26.05;;;18.98;;
75506;SDS011;64086;43.220;27.878;2023-12-20T03:43:15;25.70;;;19.20;;
75506;SDS011;64086;43.220;27.878;2023-12-20T03:45:41;32.58;;;23.13;;
75506;SDS011;64086;43.220;27.878;2023-12-20T03:48:07;33.38;;;23.83;;
75506;SDS011;64086;43.220;27.878;2023-12-20T03:50:33;36.20;;;25.17;;
75506;SDS011;64086;43.220;27.878;2023-12-20T03:52:59;39.10;;;27.75;;
75506;SDS011;64086;43.220;27.878;2023-12-20T03:55:24;34.83;;;25.30;;
75506;SDS011;64086;43.220;27.878;2023-12-20T03:57:50;31.83;;;22.30;;
75506;SDS011;64086;43.220;27.878;2023-12-20T04:00:15;33.80;;;22.42;;
75506;SDS011;64086;43.220;27.878;2023-12-20T04:02:41;28.58;;;21.08;;
75506;SDS011;64086;43.220;27.878;2023-12-20T04:05:07;27.60;;;18.85;;
75506;SDS011;64086;43.220;27.878;2023-12-20T04:07:33;31.35;;;19.23;;
75506;SDS011;64086;43.220;27.878;2023-12-20T04:09:59;30.45;;;20.27;;
75506;SDS011;64086;43.220;27.878;2023-12-20T04:12:26;31.55;;;19.65;;
75506;SDS011;64086;43.220;27.878;2023-12-20T04:14:52;26.33;;;20.00;;
75506;SDS011;64086;43.220;27.878;2023-12-20T04:17:17;33.70;;;24.67;;
75506;SDS011;64086;43.220;27.878;2023-12-20T04:19:43;35.92;;;26.30;;
75506;SDS011;64086;43.220;27.878;2023-12-20T04:22:09;34.50;;;26.38;;
75506;SDS011;64086;43.220;27.878;2023-12-20T04:24:34;41.42;;;30.85;;
75506;SDS011;64086;43.220;27.878;2023-12-20T04:27:00;42.58;;;31.27;;
75506;SDS011;64086;43.220;27.878;2023-12-20T04:29:26;39.75;;;26.38;;
75506;SDS011;64086;43.220;27.878;2023-12-20T04:31:51;34.45;;;24.90;;
75506;SDS011;64086;43.220;27.878;2023-12-20T04:34:17;35.25;;;24.60;;
75506;SDS011;64086;43.220;27.878;2023-12-20T04:36:43;35.15;;;23.30;;
75506;SDS011;64086;43.220;27.878;2023-12-20T04:39:08;35.70;;;24.45;;
75506;SDS011;64086;43.220;27.878;2023-12-20T04:41:34;37.22;;;26.02;;
75506;SDS011;64086;43.220;27.878;2023-12-20T04:44:00;36.60;;;25.48;;
75506;SDS011;64086;43.220;27.878;2023-12-20T04:46:25;42.58;;;26.52;;
75506;SDS011;64086;43.220;27.878;2023-12-20T04:48:51;40.50;;;28.80;;
75506;SDS011;64086;43.220;27.878;2023-12-20T04:51:17;47.85;;;31.08;;
75506;SDS011;64086;43.220;27.878;2023-12-20T04:53:43;42.15;;;30.08;;
75506;SDS011;64086;43.220;27.878;2023-12-20T04:56:08;45.85;;;31.17;;
75506;SDS011;64086;43.220;27.878;2023-12-20T04:58:34;48.58;;;31.70;;
75506;SDS011;64086;43.220;27.878;2023-12-20T05:00:59;49.90;;;33.22;;
75506;SDS011;64086;43.220;27.878;2023-12-20T05:03:25;43.47;;;32.88;;
75506;SDS011;64086;43.220;27.878;2023-12-20T05:05:50;45.60;;;31.27;;
75506;SDS011;64086;43.220;27.878;2023-12-20T05:08:16;44.60;;;30.40;;
75506;SDS011;64086;43.220;27.878;2023-12-20T05:10:41;48.95;;;32.33;;
75506;SDS011;64086;43.220;27.878;2023-12-20T05:13:07;44.30;;;29.50;;
75506;SDS011;64086;43.220;27.878;2023-12-20T05:15:33;48.83;;;31.30;;
75506;SDS011;64086;43.220;27.878;2023-12-20T05:17:58;43.63;;;31.95;;
75506;SDS011;64086;43.220;27.878;2023-12-20T05:20:24;41.00;;;29.50;;
75506;SDS011;64086;43.220;27.878;2023-12-20T05:22:50;48.45;;;32.60;;
75506;SDS011;64086;43.220;27.878;2023-12-20T05:25:15;44.85;;;30.55;;
75506;SDS011;64086;43.220;27.878;2023-12-20T05:27:41;54.80;;;34.20;;
75506;SDS011;64086;43.220;27.878;2023-12-20T05:30:06;74.55;;;46.33;;
75506;SDS011;64086;43.220;27.878;2023-12-20T05:32:32;103.07;;;64.90;;
75506;SDS011;64086;43.220;27.878;2023-12-20T05:34:58;105.25;;;69.00;;
75506;SDS011;64086;43.220;27.878;2023-12-20T05:37:23;103.15;;;68.38;;
75506;SDS011;64086;43.220;27.878;2023-12-20T05:39:49;99.65;;;67.03;;
75506;SDS011;64086;43.220;27.878;2023-12-20T05:42:14;76.93;;;53.78;;
75506;SDS011;64086;43.220;27.878;2023-12-20T05:44:40;71.13;;;48.78;;
75506;SDS011;64086;43.220;27.878;2023-12-20T05:47:05;72.60;;;47.67;;
75506;SDS011;64086;43.220;27.878;2023-12-20T05:49:31;61.50;;;41.83;;
75506;SDS011;64086;43.220;27.878;2023-12-20T05:51:56;67.75;;;44.38;;
75506;SDS011;64086;43.220;27.878;2023-12-20T05:54:22;69.72;;;47.03;;
75506;SDS011;64086;43.220;27.878;2023-12-20T05:56:48;70.60;;;47.00;;
75506;SDS011;64086;43.220;27.878;2023-12-20T05:59:13;71.18;;;49.78;;
75506;SDS011;64086;43.220;27.878;2023-12-20T06:01:39;74.07;;;50.55;;
75506;SDS011;64086;43.220;27.878;2023-12-20T06:04:04;72.85;;;50.05;;
75506;SDS011;64086;43.220;27.878;2023-12-20T06:06:30;73.72;;;51.72;;
75506;SDS011;64086;43.220;27.878;2023-12-20T06:08:56;79.30;;;54.50;;
75506;SDS011;64086;43.220;27.878;2023-12-20T06:11:21;74.70;;;53.17;;
75506;SDS011;64086;43.220;27.878;2023-12-20T06:13:47;75.45;;;54.70;;
75506;SDS011;64086;43.220;27.878;2023-12-20T06:16:14;72.80;;;54.13;;
75506;SDS011;64086;43.220;27.878;2023-12-20T06:18:40;74.07;;;54.35;;
75506;SDS011;64086;43.220;27.878;2023-12-20T06:21:05;72.85;;;54.75;;
75506;SDS011;64086;43.220;27.878;2023-12-20T06:23:32;69.57;;;53.95;;
75506;SDS011;64086;43.220;27.878;2023-12-20T06:25:58;63.40;;;47.83;;
75506;SDS011;64086;43.220;27.878;2023-12-20T06:28:23;62.03;;;49.83;;
75506;SDS011;64086;43.220;27.878;2023-12-20T06:30:49;64.13;;;49.08;;
75506;SDS011;64086;43.220;27.878;2023-12-20T06:33:17;67.10;;;54.15;;
75506;SDS011;64086;43.220;27.878;2023-12-20T06:35:43;76.15;;;55.88;;
75506;SDS011;64086;43.220;27.878;2023-12-20T06:38:09;57.90;;;47.85;;
75506;SDS011;64086;43.220;27.878;2023-12-20T06:40:34;59.38;;;47.03;;
75506;SDS011;64086;43.220;27.878;2023-12-20T06:43:00;62.22;;;51.33;;
75506;SDS011;64086;43.220;27.878;2023-12-20T06:45:25;63.88;;;56.88;;
75506;SDS011;64086;43.220;27.878;2023-12-20T06:47:51;65.75;;;58.60;;
75506;SDS011;64086;43.220;27.878;2023-12-20T06:50:16;65.70;;;56.22;;
75506;SDS011;64086;43.220;27.878;2023-12-20T06:52:42;62.95;;;55.85;;
75506;SDS011;64086;43.220;27.878;2023-12-20T06:55:07;61.88;;;55.05;;
75506;SDS011;64086;43.220;27.878;2023-12-20T06:57:33;58.28;;;52.38;;
75506;SDS011;64086;43.220;27.878;2023-12-20T07:00:00;57.60;;;51.85;;
75506;SDS011;64086;43.220;27.878;2023-12-20T07:02:25;63.35;;;56.85;;
75506;SDS011;64086;43.220;27.878;2023-12-20T07:04:54;64.60;;;58.10;;
75506;SDS011;64086;43.220;27.878;2023-12-20T07:07:19;67.20;;;60.60;;
75506;SDS011;64086;43.220;27.878;2023-12-20T07:09:45;81.63;;;74.00;;
75506;SDS011;64086;43.220;27.878;2023-12-20T07:12:10;91.75;;;82.85;;
75506;SDS011;64086;43.220;27.878;2023-12-20T07:14:36;102.32;;;92.43;;
75506;SDS011;64086;43.220;27.878;2023-12-20T07:17:01;109.00;;;98.47;;
75506;SDS011;64086;43.220;27.878;2023-12-20T07:19:28;109.53;;;99.05;;
75506;SDS011;64086;43.220;27.878;2023-12-20T07:21:53;101.43;;;90.95;;
75506;SDS011;64086;43.220;27.878;2023-12-20T07:24:19;89.68;;;80.93;;
75506;SDS011;64086;43.220;27.878;2023-12-20T07:26:44;85.43;;;77.18;;
75506;SDS011;64086;43.220;27.878;2023-12-20T07:29:10;86.38;;;77.28;;
75506;SDS011;64086;43.220;27.878;2023-12-20T07:31:35;87.57;;;79.15;;
75506;SDS011;64086;43.220;27.878;2023-12-20T07:34:01;87.85;;;79.53;;
75506;SDS011;64086;43.220;27.878;2023-12-20T07:36:26;92.47;;;83.68;;
75506;SDS011;64086;43.220;27.878;2023-12-20T07:38:52;94.85;;;85.63;;
75506;SDS011;64086;43.220;27.878;2023-12-20T07:41:17;94.45;;;85.68;;
75506;SDS011;64086;43.220;27.878;2023-12-20T07:43:46;93.50;;;84.85;;
75506;SDS011;64086;43.220;27.878;2023-12-20T07:46:11;91.63;;;82.72;;
75506;SDS011;64086;43.220;27.878;2023-12-20T07:48:37;84.78;;;77.30;;
75506;SDS011;64086;43.220;27.878;2023-12-20T07:51:03;86.13;;;77.53;;
75506;SDS011;64086;43.220;27.878;2023-12-20T07:53:29;84.00;;;75.65;;
75506;SDS011;64086;43.220;27.878;2023-12-20T07:55:55;83.68;;;74.38;;
75506;SDS011;64086;43.220;27.878;2023-12-20T07:58:20;84.45;;;76.32;;
75506;SDS011;64086;43.220;27.878;2023-12-20T08:00:46;90.10;;;81.05;;
75506;SDS011;64086;43.220;27.878;2023-12-20T08:03:11;90.25;;;81.32;;
75506;SDS011;64086;43.220;27.878;2023-12-20T08:05:37;92.78;;;84.55;;
75506;SDS011;64086;43.220;27.878;2023-12-20T08:08:05;93.22;;;84.72;;
75506;SDS011;64086;43.220;27.878;2023-12-20T08:10:31;92.47;;;83.60;;
75506;SDS011;64086;43.220;27.878;2023-12-20T08:12:56;91.70;;;83.03;;
75506;SDS011;64086;43.220;27.878;2023-12-20T08:15:22;90.95;;;82.13;;
75506;SDS011;64086;43.220;27.878;2023-12-20T08:17:48;92.43;;;83.43;;
75506;SDS011;64086;43.220;27.878;2023-12-20T08:20:16;86.88;;;78.90;;
75506;SDS011;64086;43.220;27.878;2023-12-20T08:22:42;51.05;;;45.75;;
75506;SDS011;64086;43.220;27.878;2023-12-20T08:25:07;51.75;;;44.00;;
75506;SDS011;64086;43.220;27.878;2023-12-20T08:27:33;77.75;;;70.20;;
75506;SDS011;64086;43.220;27.878;2023-12-20T08:30:02;77.57;;;69.97;;
75506;SDS011;64086;43.220;27.878;2023-12-20T08:32:28;69.95;;;62.83;;
75506;SDS011;64086;43.220;27.878;2023-12-20T08:34:54;43.78;;;39.20;;
75506;SDS011;64086;43.220;27.878;2023-12-20T08:37:19;45.72;;;41.30;;
75506;SDS011;64086;43.220;27.878;2023-12-20T08:39:45;47.13;;;42.35;;
75506;SDS011;64086;43.220;27.878;2023-12-20T08:42:10;56.35;;;50.72;;
75506;SDS011;64086;43.220;27.878;2023-12-20T08:44:36;71.28;;;62.88;;
75506;SDS011;64086;43.220;27.878;2023-12-20T08:47:01;69.35;;;62.03;;
75506;SDS011;64086;43.220;27.878;2023-12-20T08:49:27;78.38;;;70.18;;
75506;SDS011;64086;43.220;27.878;2023-12-20T08:51:53;81.40;;;72.85;;
75506;SDS011;64086;43.220;27.878;2023-12-20T08:54:18;72.13;;;64.57;;
75506;SDS011;64086;43.220;27.878;2023-12-20T08:56:44;131.88;;;118.80;;
75506;SDS011;64086;43.220;27.878;2023-12-20T08:59:11;98.95;;;88.63;;
75506;SDS011;64086;43.220;27.878;2023-12-20T09:01:37;229.18;;;207.35;;
75506;SDS011;64086;43.220;27.878;2023-12-20T09:04:02;74.65;;;66.13;;
75506;SDS011;64086;43.220;27.878;2023-12-20T09:06:28;64.35;;;57.60;;
75506;SDS011;64086;43.220;27.878;2023-12-20T09:08:53;64.55;;;56.47;;
75506;SDS011;64086;43.220;27.878;2023-12-20T09:11:19;65.68;;;57.80;;
75506;SDS011;64086;43.220;27.878;2023-12-20T09:13:44;62.22;;;55.00;;
75506;SDS011;64086;43.220;27.878;2023-12-20T09:16:10;68.05;;;60.90;;
75506;SDS011;64086;43.220;27.878;2023-12-20T09:18:35;72.00;;;64.53;;
75506;SDS011;64086;43.220;27.878;2023-12-20T09:21:01;72.55;;;65.47;;
75506;SDS011;64086;43.220;27.878;2023-12-20T09:23:27;78.63;;;70.57;;
75506;SDS011;64086;43.220;27.878;2023-12-20T09:25:52;81.97;;;73.93;;
75506;SDS011;64086;43.220;27.878;2023-12-20T09:28:18;85.15;;;76.47;;
75506;SDS011;64086;43.220;27.878;2023-12-20T09:30:44;80.88;;;72.63;;
75506;SDS011;64086;43.220;27.878;2023-12-20T09:33:11;68.95;;;62.22;;
75506;SDS011;64086;43.220;27.878;2023-12-20T09:35:37;62.45;;;55.92;;
75506;SDS011;64086;43.220;27.878;2023-12-20T09:38:02;64.18;;;55.72;;
75506;SDS011;64086;43.220;27.878;2023-12-20T09:40:28;63.55;;;56.80;;
75506;SDS011;64086;43.220;27.878;2023-12-20T09:45:23;65.50;;;58.55;;
75506;SDS011;64086;43.220;27.878;2023-12-20T09:47:49;63.08;;;56.05;;
75506;SDS011;64086;43.220;27.878;2023-12-20T09:50:16;56.72;;;50.65;;
75506;SDS011;64086;43.220;27.878;2023-12-20T09:52:49;47.58;;;42.42;;
75506;SDS011;64086;43.220;27.878;2023-12-20T09:55:16;53.50;;;47.67;;
75506;SDS011;64086;43.220;27.878;2023-12-20T09:57:42;44.13;;;37.40;;
75506;SDS011;64086;43.220;27.878;2023-12-20T10:00:08;63.78;;;47.25;;
75506;SDS011;64086;43.220;27.878;2023-12-20T10:02:34;51.53;;;38.75;;
75506;SDS011;64086;43.220;27.878;2023-12-20T10:05:06;32.47;;;23.85;;
75506;SDS011;64086;43.220;27.878;2023-12-20T10:07:34;33.05;;;27.70;;
75506;SDS011;64086;43.220;27.878;2023-12-20T10:10:00;13.20;;;9.43;;
75506;SDS011;64086;43.220;27.878;2023-12-20T10:12:27;9.40;;;8.13;;
75506;SDS011;64086;43.220;27.878;2023-12-20T10:14:53;11.60;;;9.13;;
75506;SDS011;64086;43.220;27.878;2023-12-20T10:17:18;13.95;;;9.60;;
75506;SDS011;64086;43.220;27.878;2023-12-20T10:19:44;9.85;;;8.10;;
75506;SDS011;64086;43.220;27.878;2023-12-20T10:22:09;14.80;;;10.70;;
75506;SDS011;64086;43.220;27.878;2023-12-20T10:24:35;9.55;;;8.45;;
75506;SDS011;64086;43.220;27.878;2023-12-20T10:27:09;9.23;;;6.88;;
75506;SDS011;64086;43.220;27.878;2023-12-20T10:29:35;9.95;;;8.75;;
75506;SDS011;64086;43.220;27.878;2023-12-20T10:34:49;7.03;;;6.25;;
75506;SDS011;64086;43.220;27.878;2023-12-20T10:37:15;7.75;;;5.90;;
75506;SDS011;64086;43.220;27.878;2023-12-20T10:39:42;7.47;;;6.57;;
75506;SDS011;64086;43.220;27.878;2023-12-20T10:42:08;8.20;;;7.20;;
75506;SDS011;64086;43.220;27.878;2023-12-20T10:44:35;8.57;;;7.20;;
75506;SDS011;64086;43.220;27.878;2023-12-20T10:47:01;9.65;;;7.68;;
75506;SDS011;64086;43.220;27.878;2023-12-20T10:49:27;10.75;;;7.30;;
75506;SDS011;64086;43.220;27.878;2023-12-20T10:51:54;11.52;;;7.88;;
75506;SDS011;64086;43.220;27.878;2023-12-20T10:54:22;9.30;;;7.60;;
75506;SDS011;64086;43.220;27.878;2023-12-20T10:56:47;8.80;;;7.90;;
75506;SDS011;64086;43.220;27.878;2023-12-20T10:59:15;9.77;;;6.97;;
75506;SDS011;64086;43.220;27.878;2023-12-20T11:01:45;12.50;;;8.38;;
75506;SDS011;64086;43.220;27.878;2023-12-20T11:04:14;12.50;;;8.13;;
75506;SDS011;64086;43.220;27.878;2023-12-20T11:09:14;8.30;;;7.35;;
75506;SDS011;64086;43.220;27.878;2023-12-20T11:14:46;16.30;;;14.60;;
75506;SDS011;64086;43.220;27.878;2023-12-20T11:17:12;76.18;;;54.38;;
75506;SDS011;64086;43.220;27.878;2023-12-20T11:22:21;7.30;;;6.43;;
75506;SDS011;64086;43.220;27.878;2023-12-20T11:24:47;8.95;;;6.53;;
75506;SDS011;64086;43.220;27.878;2023-12-20T11:27:13;8.05;;;6.55;;
75506;SDS011;64086;43.220;27.878;2023-12-20T11:29:39;8.65;;;5.85;;
75506;SDS011;64086;43.220;27.878;2023-12-20T11:34:53;8.13;;;6.22;;
75506;SDS011;64086;43.220;27.878;2023-12-20T11:37:40;9.32;;;6.43;;
75506;SDS011;64086;43.220;27.878;2023-12-20T11:40:11;8.38;;;7.30;;
75506;SDS011;64086;43.220;27.878;2023-12-20T11:42:41;12.70;;;7.80;;
75506;SDS011;64086;43.220;27.878;2023-12-20T11:45:10;11.75;;;7.40;;
75506;SDS011;64086;43.220;27.878;2023-12-20T11:47:40;9.80;;;7.80;;
75506;SDS011;64086;43.220;27.878;2023-12-20T11:50:06;9.90;;;8.38;;
75506;SDS011;64086;43.220;27.878;2023-12-20T11:52:32;11.25;;;8.95;;
75506;SDS011;64086;43.220;27.878;2023-12-20T11:54:57;11.95;;;9.52;;
75506;SDS011;64086;43.220;27.878;2023-12-20T11:57:23;11.60;;;9.48;;
75506;SDS011;64086;43.220;27.878;2023-12-20T11:59:49;11.73;;;10.02;;
75506;SDS011;64086;43.220;27.878;2023-12-20T12:02:15;12.57;;;10.70;;
75506;SDS011;64086;43.220;27.878;2023-12-20T12:04:43;11.82;;;10.10;;
75506;SDS011;64086;43.220;27.878;2023-12-20T12:07:09;13.05;;;10.02;;
75506;SDS011;64086;43.220;27.878;2023-12-20T12:09:34;11.27;;;9.93;;
75506;SDS011;64086;43.220;27.878;2023-12-20T12:12:00;13.18;;;9.77;;
75506;SDS011;64086;43.220;27.878;2023-12-20T12:14:25;13.23;;;9.95;;
75506;SDS011;64086;43.220;27.878;2023-12-20T12:16:51;13.70;;;10.60;;
75506;SDS011;64086;43.220;27.878;2023-12-20T12:19:25;11.23;;;9.55;;
75506;SDS011;64086;43.220;27.878;2023-12-20T12:21:52;10.77;;;8.15;;
75506;SDS011;64086;43.220;27.878;2023-12-20T12:24:31;12.48;;;8.98;;
75506;SDS011;64086;43.220;27.878;2023-12-20T12:26:57;12.30;;;9.43;;
75506;SDS011;64086;43.220;27.878;2023-12-20T12:29:23;11.55;;;9.30;;
75506;SDS011;64086;43.220;27.878;2023-12-20T12:31:49;12.43;;;9.35;;
75506;SDS011;64086;43.220;27.878;2023-12-20T12:34:15;12.82;;;9.82;;
75506;SDS011;64086;43.220;27.878;2023-12-20T12:36:42;11.48;;;10.27;;
75506;SDS011;64086;43.220;27.878;2023-12-20T12:39:08;13.20;;;11.52;;
75506;SDS011;64086;43.220;27.878;2023-12-20T12:41:34;14.52;;;12.23;;
75506;SDS011;64086;43.220;27.878;2023-12-20T12:44:00;14.45;;;12.63;;
75506;SDS011;64086;43.220;27.878;2023-12-20T12:46:25;15.75;;;13.27;;
75506;SDS011;64086;43.220;27.878;2023-12-20T12:48:51;15.07;;;12.82;;
75506;SDS011;64086;43.220;27.878;2023-12-20T12:51:16;18.80;;;14.30;;
75506;SDS011;64086;43.220;27.878;2023-12-20T12:53:42;16.40;;;14.63;;
75506;SDS011;64086;43.220;27.878;2023-12-20T12:56:07;18.90;;;14.82;;
75506;SDS011;64086;43.220;27.878;2023-12-20T12:58:33;16.77;;;14.43;;
75506;SDS011;64086;43.220;27.878;2023-12-20T13:00:59;17.55;;;14.93;;
75506;SDS011;64086;43.220;27.878;2023-12-20T13:03:24;65.53;;;41.75;;
75506;SDS011;64086;43.220;27.878;2023-12-20T13:05:50;124.93;;;92.65;;
75506;SDS011;64086;43.220;27.878;2023-12-20T13:08:15;18.77;;;16.77;;
75506;SDS011;64086;43.220;27.878;2023-12-20T13:10:41;18.92;;;15.00;;
75506;SDS011;64086;43.220;27.878;2023-12-20T13:13:07;17.63;;;14.98;;
75506;SDS011;64086;43.220;27.878;2023-12-20T13:15:32;16.55;;;14.68;;
75506;SDS011;64086;43.220;27.878;2023-12-20T13:17:58;17.95;;;16.05;;
75506;SDS011;64086;43.220;27.878;2023-12-20T13:20:25;18.73;;;16.83;;
75506;SDS011;64086;43.220;27.878;2023-12-20T13:22:50;17.38;;;15.45;;
75506;SDS011;64086;43.220;27.878;2023-12-20T13:25:16;18.15;;;16.15;;
75506;SDS011;64086;43.220;27.878;2023-12-20T13:27:41;20.02;;;17.00;;
75506;SDS011;64086;43.220;27.878;2023-12-20T13:30:07;20.73;;;17.48;;
75506;SDS011;64086;43.220;27.878;2023-12-20T13:32:32;21.25;;;18.55;;
75506;SDS011;64086;43.220;27.878;2023-12-20T13:34:58;22.67;;;17.25;;
75506;SDS011;64086;43.220;27.878;2023-12-20T13:37:23;21.45;;;17.55;;
75506;SDS011;64086;43.220;27.878;2023-12-20T13:39:49;22.38;;;18.08;;
75506;SDS011;64086;43.220;27.878;2023-12-20T13:42:15;24.17;;;18.45;;
75506;SDS011;64086;43.220;27.878;2023-12-20T13:44:41;22.70;;;18.17;;
75506;SDS011;64086;43.220;27.878;2023-12-20T13:47:06;22.05;;;17.70;;
75506;SDS011;64086;43.220;27.878;2023-12-20T13:49:32;23.30;;;17.75;;
75506;SDS011;64086;43.220;27.878;2023-12-20T13:51:57;22.00;;;17.25;;
75506;SDS011;64086;43.220;27.878;2023-12-20T13:54:23;23.80;;;16.80;;
75506;SDS011;64086;43.220;27.878;2023-12-20T13:56:49;21.05;;;17.27;;
75506;SDS011;64086;43.220;27.878;2023-12-20T13:59:15;23.27;;;17.88;;
75506;SDS011;64086;43.220;27.878;2023-12-20T14:01:41;23.95;;;18.73;;
75506;SDS011;64086;43.220;27.878;2023-12-20T14:04:06;21.13;;;18.55;;
75506;SDS011;64086;43.220;27.878;2023-12-20T14:06:32;22.80;;;17.85;;
75506;SDS011;64086;43.220;27.878;2023-12-20T14:08:58;25.95;;;19.48;;
75506;SDS011;64086;43.220;27.878;2023-12-20T14:11:26;23.92;;;20.08;;
75506;SDS011;64086;43.220;27.878;2023-12-20T14:13:52;27.10;;;19.45;;
75506;SDS011;64086;43.220;27.878;2023-12-20T14:16:19;22.25;;;19.25;;
75506;SDS011;64086;43.220;27.878;2023-12-20T14:18:45;22.52;;;19.13;;
75506;SDS011;64086;43.220;27.878;2023-12-20T14:21:10;26.95;;;20.15;;